createdAt,value
2022-10-01T00:00:13.579Z,4.51
2022-10-01T00:01:16.577Z,3.92
2022-10-01T00:02:19.238Z,4.27
2022-10-01T00:03:21.962Z,4.64
2022-10-01T00:04:24.542Z,4.35
2022-10-01T00:05:27.011Z,5.89
2022-10-01T00:06:30.310Z,4.13
2022-10-01T00:07:32.761Z,4.33
2022-10-01T00:08:35.206Z,4.09
2022-10-01T00:09:37.677Z,5.18
2022-10-01T00:10:40.501Z,4.69
2022-10-01T00:11:42.986Z,4.81
2022-10-01T00:12:45.427Z,5.02
2022-10-01T00:13:47.895Z,4.43
2022-10-01T00:14:50.356Z,6.63
2022-10-01T00:15:52.806Z,5.18
2022-10-01T00:16:55.349Z,5.08
2022-10-01T00:17:57.887Z,5.26
2022-10-01T00:19:00.347Z,4.61
2022-10-01T00:20:10.477Z,4.50
2022-10-01T00:21:07.168Z,5.17
2022-10-01T00:22:09.657Z,5.86
2022-10-01T00:23:12.100Z,5.86
2022-10-01T00:24:14.545Z,5.17
2022-10-01T00:25:17.002Z,5.08
2022-10-01T00:26:19.665Z,5.76
2022-10-01T00:27:22.161Z,5.28
2022-10-01T00:28:24.660Z,5.36
2022-10-01T00:29:27.174Z,4.63
2022-10-01T00:30:30.048Z,6.36
2022-10-01T00:31:32.987Z,4.94
2022-10-01T00:32:36.036Z,4.87
2022-10-01T00:33:38.484Z,6.13
2022-10-01T00:34:40.927Z,5.37
2022-10-01T00:35:43.378Z,5.74
2022-10-01T00:36:46.346Z,5.56
2022-10-01T00:37:48.836Z,6.24
2022-10-01T00:38:51.283Z,5.47
2022-10-01T00:39:53.784Z,5.59
2022-10-01T00:40:56.425Z,5.98
2022-10-01T00:41:58.874Z,6.09
2022-10-01T00:43:01.386Z,4.73
2022-10-01T00:44:03.826Z,6.45
2022-10-01T00:45:06.283Z,5.64
2022-10-01T00:46:09.015Z,5.17
2022-10-01T00:47:11.508Z,5.59
2022-10-01T00:48:13.997Z,5.18
2022-10-01T00:49:16.477Z,5.21
2022-10-01T00:50:19.254Z,6.42
2022-10-01T00:51:21.712Z,5.73
2022-10-01T00:52:24.158Z,5.35
2022-10-01T00:53:26.643Z,4.99
2022-10-01T00:54:29.094Z,4.94
2022-10-01T00:55:31.546Z,5.31
2022-10-01T00:56:34.301Z,5.25
2022-10-01T00:57:36.775Z,5.05
2022-10-01T00:58:39.295Z,5.45
2022-10-01T00:59:41.780Z,5.10
2022-10-01T01:00:44.334Z,4.45
2022-10-01T01:01:46.859Z,5.93
2022-10-01T01:02:49.430Z,5.45
2022-10-01T01:03:52.070Z,5.82
2022-10-01T01:04:54.519Z,5.61
2022-10-01T01:05:56.984Z,5.05
2022-10-01T01:06:59.764Z,4.72
2022-10-01T01:08:02.211Z,4.31
2022-10-01T01:09:04.765Z,5.14
2022-10-01T01:10:07.437Z,5.03
2022-10-01T01:11:09.881Z,4.72
2022-10-01T01:12:12.334Z,4.87
2022-10-01T01:13:14.797Z,4.58
2022-10-01T01:14:17.281Z,4.91
2022-10-01T01:15:19.731Z,4.72
2022-10-01T01:16:22.215Z,4.25
2022-10-01T01:17:24.741Z,4.59
2022-10-01T01:18:27.211Z,5.39
2022-10-01T01:19:29.726Z,4.94
2022-10-01T01:20:32.283Z,5.17
2022-10-01T01:21:35.026Z,5.25
2022-10-01T01:22:38.149Z,4.66
2022-10-01T01:23:40.625Z,4.43
2022-10-01T01:24:43.112Z,5.18
2022-10-01T01:25:45.568Z,4.14
2022-10-01T01:26:48.345Z,4.67
2022-10-01T01:27:50.838Z,4.40
2022-10-01T01:28:53.463Z,4.91
2022-10-01T01:29:55.940Z,4.19
2022-10-01T01:30:58.708Z,4.36
2022-10-01T01:32:01.260Z,4.36
2022-10-01T01:33:03.709Z,3.79
2022-10-01T01:34:06.200Z,4.39
2022-10-01T01:35:08.713Z,4.01
2022-10-01T01:36:12.373Z,4.50
2022-10-01T01:37:14.821Z,4.17
2022-10-01T01:38:17.270Z,4.23
2022-10-01T01:39:19.725Z,4.87
2022-10-01T01:40:22.403Z,5.16
2022-10-01T01:41:24.851Z,5.63
2022-10-01T01:42:27.297Z,5.38
2022-10-01T01:43:29.855Z,5.29
2022-10-01T01:44:32.319Z,5.53
2022-10-01T01:45:34.818Z,5.25
2022-10-01T01:46:37.496Z,6.01
2022-10-01T01:47:39.946Z,7.11
2022-10-01T01:48:42.400Z,6.37
2022-10-01T01:49:44.850Z,6.37
2022-10-01T01:50:47.573Z,5.92
2022-10-01T01:51:50.027Z,6.82
2022-10-01T01:52:52.518Z,6.68
2022-10-01T01:53:55.004Z,6.87
2022-10-01T01:54:57.461Z,7.16
2022-10-01T01:55:59.969Z,7.88
2022-10-01T01:57:02.445Z,8.54
2022-10-01T01:58:04.888Z,7.45
2022-10-01T01:59:07.336Z,7.79
2022-10-01T02:00:10.319Z,7.85
2022-10-01T02:01:12.835Z,7.63
2022-10-01T02:02:15.885Z,8.43
2022-10-01T02:03:18.636Z,8.37
2022-10-01T02:04:21.074Z,8.37
2022-10-01T02:05:23.522Z,8.21
2022-10-01T02:06:26.092Z,8.43
2022-10-01T02:07:28.529Z,8.98
2022-10-01T02:08:30.976Z,9.03
2022-10-01T02:09:33.451Z,8.57
2022-10-01T02:10:36.125Z,8.44
2022-10-01T02:11:38.611Z,9.07
2022-10-01T02:12:41.050Z,8.93
2022-10-01T02:13:43.500Z,9.09
2022-10-01T02:14:45.960Z,9.53
2022-10-01T02:15:48.466Z,9.29
2022-10-01T02:16:51.223Z,8.43
2022-10-01T02:17:53.685Z,9.00
2022-10-01T02:18:56.125Z,9.77
2022-10-01T02:19:58.588Z,9.79
2022-10-01T02:21:01.213Z,10.23
2022-10-01T02:22:03.684Z,11.09
2022-10-01T02:23:06.130Z,10.01
2022-10-01T02:24:08.576Z,8.98
2022-10-01T02:25:11.021Z,10.21
2022-10-01T02:26:13.976Z,9.89
2022-10-01T02:27:16.453Z,10.55
2022-10-01T02:28:18.981Z,9.24
2022-10-01T02:29:21.778Z,11.23
2022-10-01T02:30:24.326Z,10.35
2022-10-01T02:31:26.798Z,10.37
2022-10-01T02:32:29.449Z,9.63
2022-10-01T02:33:31.900Z,10.71
2022-10-01T02:34:34.353Z,10.35
2022-10-01T02:35:36.798Z,10.69
2022-10-01T02:36:39.451Z,10.63
2022-10-01T02:37:41.949Z,10.68
2022-10-01T02:38:44.387Z,11.03
2022-10-01T02:39:46.844Z,10.08
2022-10-01T02:40:49.504Z,11.07
2022-10-01T02:41:52.207Z,10.21
2022-10-01T02:42:54.670Z,11.31
2022-10-01T02:43:57.122Z,10.73
2022-10-01T02:44:59.567Z,11.17
2022-10-01T02:46:02.052Z,11.16
2022-10-01T02:47:04.574Z,12.23
2022-10-01T02:48:07.052Z,12.10
2022-10-01T02:49:09.494Z,10.99
2022-10-01T02:50:12.648Z,12.19
2022-10-01T02:51:15.095Z,12.29
2022-10-01T02:52:17.536Z,11.71
2022-10-01T02:53:20.006Z,10.80
2022-10-01T02:54:22.471Z,11.95
2022-10-01T02:55:24.908Z,11.92
2022-10-01T02:56:27.770Z,10.68
2022-10-01T02:57:30.246Z,12.28
2022-10-01T02:58:32.713Z,12.15
2022-10-01T02:59:35.251Z,12.27
2022-10-01T03:00:38.104Z,11.31
2022-10-01T03:01:40.784Z,12.15
2022-10-01T03:02:43.345Z,12.68
2022-10-01T03:03:46.037Z,11.66
2022-10-01T03:04:48.788Z,11.70
2022-10-01T03:05:51.349Z,11.82
2022-10-01T03:06:54.092Z,12.75
2022-10-01T03:07:56.527Z,12.21
2022-10-01T03:08:59.034Z,12.75
2022-10-01T03:10:01.486Z,12.73
2022-10-01T03:11:03.917Z,11.65
2022-10-01T03:12:06.360Z,12.12
2022-10-01T03:13:08.800Z,12.29
2022-10-01T03:14:11.266Z,12.38
2022-10-01T03:15:13.705Z,12.92
2022-10-01T03:16:16.369Z,13.65
2022-10-01T03:17:18.880Z,12.05
2022-10-01T03:18:21.371Z,11.77
2022-10-01T03:19:23.847Z,12.15
2022-10-01T03:20:26.395Z,12.63
2022-10-01T03:21:28.837Z,13.91
2022-10-01T03:22:31.272Z,13.55
2022-10-01T03:23:33.704Z,13.04
2022-10-01T03:24:36.194Z,12.44
2022-10-01T03:25:38.727Z,12.66
2022-10-01T03:26:41.403Z,12.06
2022-10-01T03:27:43.926Z,13.44
2022-10-01T03:28:46.493Z,13.27
2022-10-01T03:29:49.015Z,12.63
2022-10-01T03:30:51.466Z,13.39
2022-10-01T03:31:53.951Z,12.57
2022-10-01T03:32:56.549Z,14.70
2022-10-01T03:33:58.993Z,11.88
2022-10-01T03:35:01.460Z,13.33
2022-10-01T03:36:04.199Z,13.32
2022-10-01T03:37:06.747Z,12.72
2022-10-01T03:38:09.315Z,12.38
2022-10-01T03:39:11.749Z,12.74
2022-10-01T03:40:14.616Z,13.64
2022-10-01T03:41:17.075Z,12.99
2022-10-01T03:42:19.509Z,12.44
2022-10-01T03:43:22.046Z,13.43
2022-10-01T03:44:24.486Z,13.26
2022-10-01T03:45:27.000Z,13.01
2022-10-01T03:46:29.715Z,14.66
2022-10-01T03:47:32.156Z,12.52
2022-10-01T03:48:34.593Z,12.07
2022-10-01T03:49:37.039Z,13.57
2022-10-01T03:50:39.769Z,12.57
2022-10-01T03:51:42.231Z,12.68
2022-10-01T03:52:44.664Z,13.17
2022-10-01T03:53:47.108Z,12.45
2022-10-01T03:54:49.551Z,13.05
2022-10-01T03:55:52.039Z,13.53
2022-10-01T03:56:54.606Z,12.66
2022-10-01T03:57:57.039Z,12.75
2022-10-01T03:58:59.487Z,13.46
2022-10-01T04:00:01.911Z,13.80
2022-10-01T04:01:04.388Z,13.12
2022-10-01T04:02:06.921Z,13.99
2022-10-01T04:03:09.674Z,14.13
2022-10-01T04:04:12.458Z,14.84
2022-10-01T04:05:14.904Z,14.61
2022-10-01T04:06:17.665Z,14.13
2022-10-01T04:07:20.099Z,15.07
2022-10-01T04:08:24.503Z,14.31
2022-10-01T04:09:26.903Z,14.09
2022-10-01T04:10:29.598Z,14.83
2022-10-01T04:11:32.490Z,16.28
2022-10-01T04:12:37.073Z,14.72
2022-10-01T04:13:39.534Z,14.66
2022-10-01T04:14:41.971Z,14.34
2022-10-01T04:15:44.465Z,15.51
2022-10-01T04:16:47.502Z,14.25
2022-10-01T04:17:49.944Z,13.83
2022-10-01T04:18:52.387Z,16.49
2022-10-01T04:19:54.835Z,15.20
2022-10-01T04:20:57.480Z,16.67
2022-10-01T04:22:00.499Z,16.26
2022-10-01T04:23:02.937Z,14.23
2022-10-01T04:24:05.429Z,14.87
2022-10-01T04:25:07.866Z,16.11
2022-10-01T04:26:10.543Z,14.57
2022-10-01T04:27:13.030Z,14.88
2022-10-01T04:28:15.553Z,15.46
2022-10-01T04:29:18.041Z,15.57
2022-10-01T04:30:20.524Z,14.70
2022-10-01T04:31:23.081Z,15.56
2022-10-01T04:32:25.784Z,14.01
2022-10-01T04:33:28.222Z,15.26
2022-10-01T04:34:30.663Z,15.70
2022-10-01T04:35:33.139Z,15.52
2022-10-01T04:36:35.686Z,14.64
2022-10-01T04:37:38.150Z,15.82
2022-10-01T04:38:40.615Z,15.39
2022-10-01T04:39:43.053Z,14.35
2022-10-01T04:40:45.699Z,14.95
2022-10-01T04:41:48.145Z,15.39
2022-10-01T04:42:50.637Z,14.47
2022-10-01T04:43:53.128Z,16.55
2022-10-01T04:44:55.570Z,15.44
2022-10-01T04:45:58.025Z,15.73
2022-10-01T04:47:00.637Z,15.87
2022-10-01T04:48:03.250Z,15.97
2022-10-01T04:49:05.689Z,15.85
2022-10-01T04:50:08.247Z,14.14
2022-10-01T04:51:10.762Z,15.45
2022-10-01T04:52:13.213Z,15.79
2022-10-01T04:53:15.906Z,16.13
2022-10-01T04:54:18.353Z,15.14
2022-10-01T04:55:20.796Z,15.73
2022-10-01T04:56:23.950Z,14.98
2022-10-01T04:57:26.398Z,15.52
2022-10-01T04:58:28.903Z,16.36
2022-10-01T04:59:31.348Z,16.73
2022-10-01T05:00:34.080Z,14.62
2022-10-01T05:01:37.271Z,14.76
2022-10-01T05:02:40.318Z,16.26
2022-10-01T05:03:42.796Z,15.93
2022-10-01T05:04:45.236Z,16.06
2022-10-01T05:05:47.679Z,15.89
2022-10-01T05:06:50.334Z,15.86
2022-10-01T05:07:52.784Z,15.41
2022-10-01T05:08:55.252Z,15.59
2022-10-01T05:09:57.692Z,16.69
2022-10-01T05:11:00.352Z,17.55
2022-10-01T05:12:02.822Z,17.54
2022-10-01T05:13:05.268Z,16.97
2022-10-01T05:14:07.739Z,15.49
2022-10-01T05:15:10.185Z,14.35
2022-10-01T05:16:14.552Z,15.85
2022-10-01T05:17:17.117Z,15.30
2022-10-01T05:18:19.764Z,14.73
2022-10-01T05:19:25.242Z,15.42
2022-10-01T05:20:26.908Z,15.92
2022-10-01T05:21:29.885Z,14.76
2022-10-01T05:22:32.334Z,15.81
2022-10-01T05:23:34.779Z,16.63
2022-10-01T05:24:37.263Z,15.21
2022-10-01T05:25:39.799Z,15.17
2022-10-01T05:26:42.544Z,15.53
2022-10-01T05:27:45.037Z,15.32
2022-10-01T05:28:48.118Z,17.48
2022-10-01T05:29:50.591Z,16.53
2022-10-01T05:30:53.239Z,17.19
2022-10-01T05:31:55.776Z,17.29
2022-10-01T05:32:58.331Z,15.67
2022-10-01T05:34:00.775Z,17.08
2022-10-01T05:35:03.252Z,16.86
2022-10-01T05:36:05.999Z,15.76
2022-10-01T05:37:08.449Z,18.42
2022-10-01T05:38:10.903Z,17.86
2022-10-01T05:39:13.368Z,16.34
2022-10-01T05:40:16.341Z,16.92
2022-10-01T05:41:18.990Z,17.28
2022-10-01T05:42:21.452Z,16.79
2022-10-01T05:43:24.112Z,16.45
2022-10-01T05:44:26.561Z,17.21
2022-10-01T05:45:29.105Z,17.82
2022-10-01T05:46:32.085Z,18.58
2022-10-01T05:47:34.525Z,17.07
2022-10-01T05:48:37.198Z,16.04
2022-10-01T05:49:39.733Z,16.44
2022-10-01T05:50:42.512Z,14.49
2022-10-01T05:51:44.957Z,15.09
2022-10-01T05:52:47.435Z,17.21
2022-10-01T05:53:50.634Z,17.26
2022-10-01T05:54:53.450Z,15.88
2022-10-01T05:55:55.915Z,16.38
2022-10-01T05:56:58.469Z,14.33
2022-10-01T05:58:00.910Z,17.01
2022-10-01T05:59:03.362Z,17.25
2022-10-01T06:00:06.110Z,17.30
2022-10-01T06:01:08.835Z,16.12
2022-10-01T06:02:11.347Z,16.43
2022-10-01T06:03:13.946Z,16.57
2022-10-01T06:04:16.611Z,15.13
2022-10-01T06:05:19.059Z,15.66
2022-10-01T06:06:21.803Z,14.31
2022-10-01T06:07:24.291Z,14.85
2022-10-01T06:08:26.750Z,13.99
2022-10-01T06:09:29.212Z,13.66
2022-10-01T06:10:31.849Z,13.76
2022-10-01T06:11:34.551Z,13.72
2022-10-01T06:12:37.288Z,13.74
2022-10-01T06:13:39.730Z,13.75
2022-10-01T06:14:42.175Z,13.76
2022-10-01T06:15:44.623Z,14.99
2022-10-01T06:16:47.361Z,14.71
2022-10-01T06:17:49.962Z,14.50
2022-10-01T06:18:52.403Z,15.11
2022-10-01T06:19:54.849Z,15.71
2022-10-01T06:20:57.389Z,15.68
2022-10-01T06:22:00.064Z,14.47
2022-10-01T06:23:02.513Z,15.05
2022-10-01T06:24:04.966Z,14.95
2022-10-01T06:25:07.419Z,14.91
2022-10-01T06:26:10.058Z,13.47
2022-10-01T06:27:12.549Z,14.27
2022-10-01T06:28:15.084Z,14.12
2022-10-01T06:29:17.822Z,13.81
2022-10-01T06:30:20.493Z,13.71
2022-10-01T06:31:23.008Z,15.18
2022-10-01T06:32:25.809Z,13.87
2022-10-01T06:33:28.445Z,14.29
2022-10-01T06:34:31.217Z,13.45
2022-10-01T06:35:33.759Z,12.82
2022-10-01T06:36:36.493Z,13.19
2022-10-01T06:37:38.955Z,12.96
2022-10-01T06:38:41.393Z,11.40
2022-10-01T06:39:43.866Z,12.62
2022-10-01T06:40:46.549Z,13.69
2022-10-01T06:41:48.989Z,14.22
2022-10-01T06:42:56.023Z,13.59
2022-10-01T06:43:55.861Z,13.18
2022-10-01T06:44:58.323Z,13.20
2022-10-01T06:46:00.822Z,13.97
2022-10-01T06:47:03.302Z,14.15
2022-10-01T06:48:05.791Z,15.12
2022-10-01T06:49:08.224Z,16.13
2022-10-01T06:50:11.372Z,16.86
2022-10-01T06:51:13.803Z,14.66
2022-10-01T06:52:16.239Z,14.43
2022-10-01T06:53:18.739Z,14.76
2022-10-01T06:54:21.200Z,14.02
2022-10-01T06:55:23.637Z,14.53
2022-10-01T06:56:26.273Z,13.82
2022-10-01T06:57:28.716Z,14.74
2022-10-01T06:58:31.172Z,14.07
2022-10-01T06:59:33.612Z,12.82
2022-10-01T07:00:36.350Z,13.28
2022-10-01T07:01:39.285Z,13.78
2022-10-01T07:02:42.142Z,13.06
2022-10-01T07:03:44.766Z,12.91
2022-10-01T07:04:47.196Z,13.27
2022-10-01T07:05:49.635Z,12.59
2022-10-01T07:06:52.066Z,13.01
2022-10-01T07:07:54.548Z,12.86
2022-10-01T07:08:57.129Z,14.09
2022-10-01T07:09:59.615Z,11.71
2022-10-01T07:11:02.054Z,12.53
2022-10-01T07:12:04.620Z,12.16
2022-10-01T07:13:07.055Z,13.36
2022-10-01T07:14:09.520Z,11.79
2022-10-01T07:15:11.959Z,11.76
2022-10-01T07:16:15.138Z,11.57
2022-10-01T07:17:17.659Z,11.03
2022-10-01T07:18:20.099Z,14.18
2022-10-01T07:19:22.589Z,19.58
2022-10-01T07:20:25.219Z,16.44
2022-10-01T07:21:27.868Z,17.93
2022-10-01T07:22:30.315Z,16.25
2022-10-01T07:23:32.762Z,13.74
2022-10-01T07:24:35.234Z,12.71
2022-10-01T07:25:37.684Z,12.47
2022-10-01T07:26:40.314Z,11.98
2022-10-01T07:27:42.742Z,11.86
2022-10-01T07:28:45.186Z,11.34
2022-10-01T07:29:48.139Z,11.11
2022-10-01T07:30:50.675Z,11.43
2022-10-01T07:31:53.168Z,10.49
2022-10-01T07:32:55.748Z,10.83
2022-10-01T07:33:58.186Z,11.16
2022-10-01T07:35:00.874Z,11.48
2022-10-01T07:36:03.411Z,11.77
2022-10-01T07:37:05.860Z,11.87
2022-10-01T07:38:08.293Z,12.28
2022-10-01T07:39:10.731Z,10.87
2022-10-01T07:40:15.018Z,13.02
2022-10-01T07:41:17.667Z,11.56
2022-10-01T07:42:20.113Z,11.71
2022-10-01T07:43:22.561Z,10.47
2022-10-01T07:44:24.988Z,11.30
2022-10-01T07:45:27.528Z,12.45
2022-10-01T07:46:34.492Z,12.59
2022-10-01T07:47:34.757Z,12.22
2022-10-01T07:48:37.199Z,11.91
2022-10-01T07:49:39.635Z,11.86
2022-10-01T07:50:42.327Z,10.99
2022-10-01T07:51:44.879Z,10.92
2022-10-01T07:53:57.363Z,11.77
2022-10-01T07:54:59.841Z,11.74
2022-10-01T07:56:02.441Z,10.65
2022-10-01T07:57:05.069Z,11.15
2022-10-01T07:58:07.511Z,11.17
2022-10-01T07:59:09.951Z,10.60
2022-10-01T08:00:12.934Z,11.09
2022-10-01T08:01:15.498Z,11.09
2022-10-01T08:02:18.100Z,11.15
2022-10-01T08:03:20.800Z,11.99
2022-10-01T08:04:23.243Z,12.47
2022-10-01T08:05:25.794Z,11.28
2022-10-01T08:06:28.531Z,10.96
2022-10-01T08:07:31.062Z,11.69
2022-10-01T08:08:33.509Z,11.35
2022-10-01T08:09:36.037Z,11.10
2022-10-01T08:10:38.880Z,12.09
2022-10-01T08:11:41.377Z,10.69
2022-10-01T08:12:43.838Z,11.77
2022-10-01T08:13:46.285Z,10.85
2022-10-01T08:14:48.725Z,11.42
2022-10-01T08:15:51.271Z,12.09
2022-10-01T08:16:54.313Z,10.95
2022-10-01T08:17:56.832Z,10.74
2022-10-01T08:18:59.278Z,12.27
2022-10-01T08:20:01.726Z,11.25
2022-10-01T08:21:04.542Z,10.56
2022-10-01T08:22:07.022Z,10.27
2022-10-01T08:23:09.462Z,10.65
2022-10-01T08:24:11.912Z,10.92
2022-10-01T08:25:14.349Z,10.36
2022-10-01T08:26:17.400Z,10.59
2022-10-01T08:27:20.154Z,10.20
2022-10-01T08:28:22.655Z,11.25
2022-10-01T08:29:25.159Z,10.26
2022-10-01T08:30:27.778Z,10.39
2022-10-01T08:31:30.251Z,10.09
2022-10-01T08:32:33.041Z,10.03
2022-10-01T08:33:35.660Z,10.06
2022-10-01T08:34:38.098Z,9.75
2022-10-01T08:35:40.563Z,10.49
2022-10-01T08:36:43.088Z,8.60
2022-10-01T08:37:45.564Z,9.53
2022-10-01T08:38:48.008Z,10.21
2022-10-01T08:39:50.445Z,10.57
2022-10-01T08:40:53.187Z,10.07
2022-10-01T08:41:55.829Z,10.08
2022-10-01T08:42:58.323Z,10.97
2022-10-01T08:44:00.767Z,9.89
2022-10-01T08:45:03.208Z,10.75
2022-10-01T08:46:05.977Z,10.27
2022-10-01T08:47:08.487Z,8.89
2022-10-01T08:48:10.955Z,10.03
2022-10-01T08:49:13.423Z,9.33
2022-10-01T08:50:15.963Z,9.66
2022-10-01T08:51:18.410Z,9.83
2022-10-01T08:52:20.851Z,9.61
2022-10-01T08:53:23.397Z,9.99
2022-10-01T08:54:25.841Z,10.55
2022-10-01T08:55:28.493Z,9.65
2022-10-01T08:56:31.061Z,10.34
2022-10-01T08:57:33.510Z,9.86
2022-10-01T08:58:36.034Z,10.31
2022-10-01T08:59:38.535Z,9.41
2022-10-01T09:00:41.173Z,8.72
2022-10-01T09:01:43.949Z,9.80
2022-10-01T09:02:46.503Z,10.48
2022-10-01T09:03:48.971Z,10.65
2022-10-01T09:04:51.481Z,8.63
2022-10-01T09:05:53.960Z,10.29
2022-10-01T09:06:56.602Z,9.61
2022-10-01T09:07:59.041Z,9.89
2022-10-01T09:09:01.507Z,9.62
2022-10-01T09:10:04.248Z,10.21
2022-10-01T09:11:06.696Z,9.95
2022-10-01T09:12:09.130Z,9.33
2022-10-01T09:13:11.568Z,9.52
2022-10-01T09:14:14.060Z,10.37
2022-10-01T09:15:16.559Z,10.35
2022-10-01T09:16:19.448Z,9.75
2022-10-01T09:17:21.937Z,8.78
2022-10-01T09:18:24.430Z,9.82
2022-10-01T09:19:26.927Z,10.36
2022-10-01T09:20:29.672Z,9.36
2022-10-01T09:21:32.779Z,9.62
2022-10-01T09:22:35.723Z,9.22
2022-10-01T09:23:38.362Z,9.21
2022-10-01T09:24:40.828Z,9.16
2022-10-01T09:25:43.278Z,9.07
2022-10-01T09:26:46.081Z,10.19
2022-10-01T09:27:48.603Z,9.49
2022-10-01T09:28:51.112Z,8.93
2022-10-01T09:29:53.584Z,8.30
2022-10-01T09:30:56.432Z,8.96
2022-10-01T09:31:58.934Z,10.35
2022-10-01T09:33:01.429Z,9.50
2022-10-01T09:34:03.873Z,9.80
2022-10-01T09:35:06.354Z,8.47
2022-10-01T09:36:09.145Z,9.19
2022-10-01T09:37:11.587Z,9.14
2022-10-01T09:38:14.030Z,8.83
2022-10-01T09:39:16.611Z,9.27
2022-10-01T09:40:19.188Z,9.47
2022-10-01T09:41:21.640Z,9.59
2022-10-01T09:42:24.138Z,9.61
2022-10-01T09:43:26.575Z,9.96
2022-10-01T09:44:29.044Z,9.09
2022-10-01T09:45:31.933Z,9.18
2022-10-01T09:46:34.643Z,9.29
2022-10-01T09:47:37.084Z,8.92
2022-10-01T09:48:39.553Z,8.87
2022-10-01T09:49:42.009Z,9.17
2022-10-01T09:50:44.673Z,8.85
2022-10-01T09:51:47.120Z,10.02
2022-10-01T09:52:49.562Z,9.60
2022-10-01T09:53:51.999Z,8.85
2022-10-01T09:54:54.707Z,9.60
2022-10-01T09:55:57.174Z,9.22
2022-10-01T09:56:59.717Z,8.65
2022-10-01T09:58:02.236Z,8.99
2022-10-01T09:59:04.680Z,8.59
2022-10-01T10:00:08.052Z,8.34
2022-10-01T10:01:10.521Z,9.45
2022-10-01T10:02:13.067Z,8.62
2022-10-01T10:03:15.950Z,8.21
2022-10-01T10:04:20.209Z,8.46
2022-10-01T10:05:23.036Z,8.56
2022-10-01T10:06:25.947Z,8.75
2022-10-01T10:07:28.401Z,8.75
2022-10-01T10:08:30.844Z,8.73
2022-10-01T10:09:33.309Z,8.81
2022-10-01T10:10:35.974Z,8.79
2022-10-01T10:11:38.437Z,9.25
2022-10-01T10:12:40.873Z,9.69
2022-10-01T10:13:43.318Z,9.30
2022-10-01T10:14:45.754Z,10.04
2022-10-01T10:15:48.364Z,7.78
2022-10-01T10:16:51.125Z,8.46
2022-10-01T10:17:53.763Z,9.21
2022-10-01T10:18:56.205Z,9.86
2022-10-01T10:19:58.683Z,10.03
2022-10-01T10:21:01.423Z,9.50
2022-10-01T10:22:03.901Z,8.17
2022-10-01T10:23:06.351Z,9.62
2022-10-01T10:24:08.785Z,9.50
2022-10-01T10:25:11.226Z,8.73
2022-10-01T10:26:15.209Z,8.74
2022-10-01T10:27:17.820Z,9.21
2022-10-01T10:28:20.296Z,8.99
2022-10-01T10:29:22.793Z,9.18
2022-10-01T10:30:25.776Z,8.38
2022-10-01T10:31:28.261Z,9.55
2022-10-01T10:32:30.800Z,8.27
2022-10-01T10:33:33.237Z,8.41
2022-10-01T10:34:35.671Z,9.74
2022-10-01T10:35:38.106Z,9.57
2022-10-01T10:36:40.863Z,9.49
2022-10-01T10:37:43.346Z,8.79
2022-10-01T10:38:45.789Z,10.08
2022-10-01T10:39:48.222Z,9.28
2022-10-01T10:40:50.939Z,9.99
2022-10-01T10:56:14.190Z,12.20
2022-10-01T10:57:16.634Z,11.19
2022-10-01T10:58:19.175Z,10.16
2022-10-01T10:59:21.652Z,10.09
2022-10-01T11:00:24.204Z,10.25
2022-10-01T11:01:27.356Z,8.71
2022-10-01T11:02:30.055Z,8.87
2022-10-01T11:03:32.889Z,8.75
2022-10-01T11:04:35.328Z,8.49
2022-10-01T11:05:37.768Z,9.06
2022-10-01T11:06:40.504Z,10.56
2022-10-01T11:07:43.286Z,9.23
2022-10-01T11:08:45.734Z,8.17
2022-10-01T11:09:48.176Z,9.25
2022-10-01T11:10:50.922Z,8.43
2022-10-01T11:11:53.441Z,7.89
2022-10-01T11:12:55.864Z,8.31
2022-10-01T11:13:58.349Z,8.70
2022-10-01T11:15:00.797Z,7.99
2022-10-01T11:16:03.367Z,8.12
2022-10-01T11:17:05.925Z,8.48
2022-10-01T11:18:08.497Z,8.24
2022-10-01T11:19:10.960Z,8.17
2022-10-01T11:20:18.582Z,7.45
2022-10-01T11:21:18.675Z,7.89
2022-10-01T11:22:21.267Z,7.77
2022-10-01T11:23:23.726Z,7.69
2022-10-01T11:24:26.169Z,7.55
2022-10-01T11:25:28.607Z,7.40
2022-10-01T11:26:31.730Z,7.65
2022-10-01T11:27:34.596Z,7.97
2022-10-01T11:28:37.042Z,7.55
2022-10-01T11:29:39.488Z,7.41
2022-10-01T11:30:41.931Z,7.41
2022-10-01T11:31:44.383Z,7.14
2022-10-01T11:32:46.850Z,7.27
2022-10-01T11:33:49.303Z,6.51
2022-10-01T11:34:51.742Z,6.18
2022-10-01T11:35:54.208Z,6.59
2022-10-01T11:36:57.082Z,5.99
2022-10-01T11:37:59.546Z,6.08
2022-10-01T11:39:02.289Z,5.62
2022-10-01T11:40:05.030Z,5.86
2022-10-01T11:41:07.614Z,5.70
2022-10-01T11:42:10.062Z,5.51
2022-10-01T11:43:12.533Z,6.67
2022-10-01T11:44:14.987Z,5.67
2022-10-01T11:45:17.432Z,6.10
2022-10-01T11:46:20.211Z,5.95
2022-10-01T11:47:22.713Z,6.08
2022-10-01T11:48:25.225Z,6.10
2022-10-01T11:49:27.690Z,5.07
2022-10-01T11:50:30.227Z,5.81
2022-10-01T11:51:32.673Z,5.85
2022-10-01T11:52:35.156Z,5.68
2022-10-01T11:53:37.626Z,4.60
2022-10-01T11:54:40.485Z,5.27
2022-10-01T11:55:42.922Z,5.02
2022-10-01T11:56:45.565Z,5.31
2022-10-01T11:57:48.023Z,5.22
2022-10-01T11:58:50.576Z,4.64
2022-10-01T11:59:53.090Z,4.51
2022-10-01T12:00:55.652Z,4.89
2022-10-01T12:01:58.164Z,6.16
2022-10-01T12:03:00.740Z,6.28
2022-10-01T12:04:03.223Z,5.14
2022-10-01T12:05:05.696Z,5.06
2022-10-01T12:06:08.811Z,4.84
2022-10-01T12:07:11.285Z,4.67
2022-10-01T12:08:13.727Z,5.60
2022-10-01T12:09:16.507Z,3.54
2022-10-01T12:10:19.059Z,5.16
2022-10-01T12:11:21.499Z,3.96
2022-10-01T12:12:23.947Z,3.27
2022-10-01T12:13:26.410Z,2.99
2022-10-01T12:14:28.905Z,3.43
2022-10-01T12:15:31.411Z,3.65
2022-10-01T12:16:34.489Z,4.11
2022-10-01T12:17:37.200Z,3.01
2022-10-01T12:18:39.684Z,3.23
2022-10-01T12:19:42.258Z,3.61
2022-10-01T12:20:44.813Z,3.06
2022-10-01T12:21:47.253Z,3.43
2022-10-01T12:22:49.801Z,2.97
2022-10-01T12:23:52.243Z,3.61
2022-10-01T12:24:54.733Z,3.75
2022-10-01T12:25:57.315Z,2.88
2022-10-01T12:26:59.954Z,2.75
2022-10-01T12:28:02.503Z,2.96
2022-10-01T12:29:05.293Z,3.12
2022-10-01T12:30:08.597Z,2.88
2022-10-01T12:31:11.187Z,2.67
2022-10-01T12:32:13.937Z,2.95
2022-10-01T12:33:16.568Z,2.73
2022-10-01T12:34:19.017Z,3.01
2022-10-01T12:35:21.487Z,2.91
2022-10-01T12:36:24.228Z,3.65
2022-10-01T12:37:26.676Z,3.73
2022-10-01T12:38:29.140Z,2.81
2022-10-01T12:39:31.576Z,3.25
2022-10-01T12:40:34.170Z,3.15
2022-10-01T12:41:36.609Z,3.25
2022-10-01T12:42:39.363Z,3.60
2022-10-01T12:43:41.805Z,3.65
2022-10-01T12:44:44.277Z,3.89
2022-10-01T12:45:47.033Z,3.75
2022-10-01T12:46:49.751Z,5.01
2022-10-01T12:47:52.198Z,4.85
2022-10-01T12:48:54.649Z,3.43
2022-10-01T12:49:57.087Z,11.57
2022-10-01T12:50:59.862Z,12.37
2022-10-01T12:52:02.348Z,5.17
2022-10-01T12:53:04.786Z,3.81
2022-10-01T12:54:10.482Z,3.95
2022-10-01T12:55:11.800Z,3.88
2022-10-01T12:56:15.341Z,3.67
2022-10-01T12:57:17.778Z,3.94
2022-10-01T12:58:20.331Z,4.31
2022-10-01T12:59:22.800Z,3.03
2022-10-01T13:00:25.336Z,3.25
2022-10-01T13:01:28.065Z,3.09
2022-10-01T13:02:30.760Z,3.17
2022-10-01T13:03:33.302Z,3.53
2022-10-01T13:04:35.748Z,2.65
2022-10-01T13:05:38.197Z,3.53
2022-10-01T13:06:40.781Z,2.96
2022-10-01T13:07:43.225Z,2.86
2022-10-01T13:08:45.666Z,2.85
2022-10-01T13:09:49.180Z,2.50
2022-10-01T13:10:51.997Z,3.06
2022-10-01T13:11:54.563Z,2.97
2022-10-01T13:12:57.002Z,2.89
2022-10-01T13:13:59.453Z,2.57
2022-10-01T13:15:01.910Z,2.72
2022-10-01T13:16:04.817Z,2.66
2022-10-01T13:17:07.417Z,2.43
2022-10-01T13:18:09.853Z,2.73
2022-10-01T13:19:12.320Z,2.99
2022-10-01T13:20:15.158Z,2.76
2022-10-01T13:21:18.711Z,2.94
2022-10-01T13:22:21.207Z,2.51
2022-10-01T13:23:23.658Z,2.48
2022-10-01T13:24:26.097Z,2.31
2022-10-01T13:25:28.536Z,2.55
2022-10-01T13:26:31.173Z,2.27
2022-10-01T13:27:33.632Z,2.26
2022-10-01T13:28:36.402Z,3.59
2022-10-01T13:29:38.836Z,3.60
2022-10-01T13:30:41.482Z,2.48
2022-10-01T13:31:43.971Z,2.33
2022-10-01T13:32:46.598Z,1.91
2022-10-01T13:33:49.270Z,2.38
2022-10-01T13:34:51.707Z,2.40
2022-10-01T13:35:54.165Z,2.31
2022-10-01T13:36:56.603Z,2.18
2022-10-01T13:37:59.072Z,2.47
2022-10-01T13:39:01.533Z,1.95
2022-10-01T13:40:03.964Z,2.11
2022-10-01T13:41:06.395Z,2.20
2022-10-01T13:42:09.031Z,2.15
2022-10-01T13:43:11.525Z,2.71
2022-10-01T13:44:13.959Z,2.52
2022-10-01T13:45:16.875Z,1.99
2022-10-01T13:46:20.381Z,2.04
2022-10-01T13:47:23.004Z,1.63
2022-10-01T13:48:25.488Z,1.77
2022-10-01T13:49:27.932Z,1.85
2022-10-01T13:50:30.668Z,1.94
2022-10-01T13:51:33.107Z,1.70
2022-10-01T13:52:35.751Z,1.75
2022-10-01T13:53:38.251Z,1.99
2022-10-01T13:54:40.685Z,1.90